sensor_id;sensor_type;location;lat;lon;timestamp;P1;durP1;ratioP1;P2;durP2;ratioP2
2338;SDS011;1180;51.438;6.978;2023-03-01T00:01:04;10.63;;;7.55;;
2338;SDS011;1180;51.438;6.978;2023-03-01T00:03:31;8.82;;;7.93;;
2338;SDS011;1180;51.438;6.978;2023-03-01T00:05:57;8.00;;;6.95;;
2338;SDS011;1180;51.438;6.978;2023-03-01T00:08:22;8.63;;;6.60;;
2338;SDS011;1180;51.438;6.978;2023-03-01T00:10:48;8.87;;;7.43;;
2338;SDS011;1180;51.438;6.978;2023-03-01T00:13:13;12.00;;;8.67;;
2338;SDS011;1180;51.438;6.978;2023-03-01T00:15:39;9.37;;;7.57;;
2338;SDS011;1180;51.438;6.978;2023-03-01T00:18:06;7.88;;;7.15;;
2338;SDS011;1180;51.438;6.978;2023-03-01T00:20:32;9.43;;;8.45;;
2338;SDS011;1180;51.438;6.978;2023-03-01T00:23:03;10.23;;;7.70;;
2338;SDS011;1180;51.438;6.978;2023-03-01T00:25:28;8.82;;;7.55;;
2338;SDS011;1180;51.438;6.978;2023-03-01T00:27:54;9.30;;;7.67;;
2338;SDS011;1180;51.438;6.978;2023-03-01T00:30:19;9.57;;;8.00;;
2338;SDS011;1180;51.438;6.978;2023-03-01T00:32:44;9.53;;;7.03;;
2338;SDS011;1180;51.438;6.978;2023-03-01T00:35:10;10.80;;;8.43;;
2338;SDS011;1180;51.438;6.978;2023-03-01T00:37:35;9.07;;;7.37;;
2338;SDS011;1180;51.438;6.978;2023-03-01T00:40:00;7.57;;;6.90;;
2338;SDS011;1180;51.438;6.978;2023-03-01T00:42:27;8.80;;;7.93;;
2338;SDS011;1180;51.438;6.978;2023-03-01T00:44:52;9.65;;;7.75;;
2338;SDS011;1180;51.438;6.978;2023-03-01T00:47:17;10.33;;;8.33;;
2338;SDS011;1180;51.438;6.978;2023-03-01T00:49:42;8.07;;;7.17;;
2338;SDS011;1180;51.438;6.978;2023-03-01T00:52:08;8.83;;;7.50;;
2338;SDS011;1180;51.438;6.978;2023-03-01T00:54:33;7.93;;;7.13;;
2338;SDS011;1180;51.438;6.978;2023-03-01T00:56:58;9.40;;;7.80;;
2338;SDS011;1180;51.438;6.978;2023-03-01T00:59:24;9.00;;;7.30;;
2338;SDS011;1180;51.438;6.978;2023-03-01T01:01:49;7.93;;;7.10;;
2338;SDS011;1180;51.438;6.978;2023-03-01T01:04:14;9.13;;;7.67;;
2338;SDS011;1180;51.438;6.978;2023-03-01T01:06:44;7.77;;;6.97;;
2338;SDS011;1180;51.438;6.978;2023-03-01T01:09:12;8.35;;;7.45;;
2338;SDS011;1180;51.438;6.978;2023-03-01T01:11:42;9.77;;;7.45;;
2338;SDS011;1180;51.438;6.978;2023-03-01T01:14:08;6.90;;;6.20;;
2338;SDS011;1180;51.438;6.978;2023-03-01T01:16:34;9.10;;;7.57;;
2338;SDS011;1180;51.438;6.978;2023-03-01T01:18:59;11.97;;;7.60;;
2338;SDS011;1180;51.438;6.978;2023-03-01T01:21:25;8.00;;;7.20;;
2338;SDS011;1180;51.438;6.978;2023-03-01T01:23:51;7.75;;;7.15;;
2338;SDS011;1180;51.438;6.978;2023-03-01T01:28:46;10.88;;;7.65;;
2338;SDS011;1180;51.438;6.978;2023-03-01T01:31:12;10.90;;;8.10;;
2338;SDS011;1180;51.438;6.978;2023-03-01T01:33:37;8.33;;;7.07;;
2338;SDS011;1180;51.438;6.978;2023-03-01T01:36:03;11.20;;;7.60;;
2338;SDS011;1180;51.438;6.978;2023-03-01T01:38:30;8.63;;;7.72;;
2338;SDS011;1180;51.438;6.978;2023-03-01T01:40:56;9.30;;;6.80;;
2338;SDS011;1180;51.438;6.978;2023-03-01T01:45:52;9.15;;;7.55;;
2338;SDS011;1180;51.438;6.978;2023-03-01T01:48:23;8.00;;;7.30;;
2338;SDS011;1180;51.438;6.978;2023-03-01T01:50:55;8.25;;;7.32;;
2338;SDS011;1180;51.438;6.978;2023-03-01T01:53:25;9.35;;;7.97;;
2338;SDS011;1180;51.438;6.978;2023-03-01T01:55:53;9.20;;;7.17;;
2338;SDS011;1180;51.438;6.978;2023-03-01T01:58:24;9.95;;;8.38;;
2338;SDS011;1180;51.438;6.978;2023-03-01T02:00:52;10.63;;;7.80;;
2338;SDS011;1180;51.438;6.978;2023-03-01T02:03:23;11.63;;;8.63;;
2338;SDS011;1180;51.438;6.978;2023-03-01T02:05:56;9.48;;;7.80;;
2338;SDS011;1180;51.438;6.978;2023-03-01T02:08:31;12.18;;;8.43;;
2338;SDS011;1180;51.438;6.978;2023-03-01T02:11:00;10.50;;;8.68;;
2338;SDS011;1180;51.438;6.978;2023-03-01T02:13:26;9.50;;;7.70;;
2338;SDS011;1180;51.438;6.978;2023-03-01T02:15:52;11.18;;;7.63;;
2338;SDS011;1180;51.438;6.978;2023-03-01T02:18:18;9.80;;;7.90;;
2338;SDS011;1180;51.438;6.978;2023-03-01T02:23:17;10.50;;;7.72;;
2338;SDS011;1180;51.438;6.978;2023-03-01T02:28:24;9.10;;;7.90;;
2338;SDS011;1180;51.438;6.978;2023-03-01T02:30:51;10.13;;;8.30;;
2338;SDS011;1180;51.438;6.978;2023-03-01T02:33:37;11.90;;;7.80;;
2338;SDS011;1180;51.438;6.978;2023-03-01T02:36:05;9.20;;;7.60;;
2338;SDS011;1180;51.438;6.978;2023-03-01T02:38:34;9.38;;;7.10;;
2338;SDS011;1180;51.438;6.978;2023-03-01T02:41:00;10.27;;;8.03;;
2338;SDS011;1180;51.438;6.978;2023-03-01T02:43:27;11.27;;;8.50;;
2338;SDS011;1180;51.438;6.978;2023-03-01T02:46:02;9.52;;;7.82;;
2338;SDS011;1180;51.438;6.978;2023-03-01T02:48:39;8.45;;;7.55;;
2338;SDS011;1180;51.438;6.978;2023-03-01T02:51:07;10.48;;;7.57;;
2338;SDS011;1180;51.438;6.978;2023-03-01T02:56:06;8.77;;;7.03;;
2338;SDS011;1180;51.438;6.978;2023-03-01T02:58:38;9.15;;;7.93;;
2338;SDS011;1180;51.438;6.978;2023-03-01T03:01:10;8.65;;;7.85;;
2338;SDS011;1180;51.438;6.978;2023-03-01T03:03:38;9.27;;;8.13;;
2338;SDS011;1180;51.438;6.978;2023-03-01T03:06:03;12.47;;;8.27;;
2338;SDS011;1180;51.438;6.978;2023-03-01T03:08:29;9.73;;;7.97;;
2338;SDS011;1180;51.438;6.978;2023-03-01T03:10:54;14.70;;;8.97;;
2338;SDS011;1180;51.438;6.978;2023-03-01T03:13:19;11.07;;;7.73;;
2338;SDS011;1180;51.438;6.978;2023-03-01T03:15:46;9.85;;;7.53;;
2338;SDS011;1180;51.438;6.978;2023-03-01T03:18:13;10.03;;;8.37;;
2338;SDS011;1180;51.438;6.978;2023-03-01T03:20:41;10.32;;;7.93;;
2338;SDS011;1180;51.438;6.978;2023-03-01T03:23:08;8.77;;;7.70;;
2338;SDS011;1180;51.438;6.978;2023-03-01T03:25:34;8.30;;;7.33;;
2338;SDS011;1180;51.438;6.978;2023-03-01T03:28:02;10.60;;;8.57;;
2338;SDS011;1180;51.438;6.978;2023-03-01T03:30:34;11.25;;;8.55;;
2338;SDS011;1180;51.438;6.978;2023-03-01T03:33:01;10.57;;;9.07;;
2338;SDS011;1180;51.438;6.978;2023-03-01T03:35:33;12.40;;;8.00;;
2338;SDS011;1180;51.438;6.978;2023-03-01T03:38:06;10.57;;;7.90;;
2338;SDS011;1180;51.438;6.978;2023-03-01T03:40:40;13.07;;;8.07;;
2338;SDS011;1180;51.438;6.978;2023-03-01T03:43:09;11.55;;;8.35;;
2338;SDS011;1180;51.438;6.978;2023-03-01T03:45:37;16.42;;;8.98;;
2338;SDS011;1180;51.438;6.978;2023-03-01T03:48:05;9.45;;;7.55;;
2338;SDS011;1180;51.438;6.978;2023-03-01T03:50:31;14.70;;;9.95;;
2338;SDS011;1180;51.438;6.978;2023-03-01T03:52:57;10.40;;;8.30;;
2338;SDS011;1180;51.438;6.978;2023-03-01T03:55:25;10.00;;;8.40;;
2338;SDS011;1180;51.438;6.978;2023-03-01T03:57:54;12.80;;;8.85;;
2338;SDS011;1180;51.438;6.978;2023-03-01T04:00:22;10.60;;;7.80;;
2338;SDS011;1180;51.438;6.978;2023-03-01T04:02:49;11.70;;;8.30;;
2338;SDS011;1180;51.438;6.978;2023-03-01T04:05:16;13.00;;;8.25;;
2338;SDS011;1180;51.438;6.978;2023-03-01T04:07:43;9.23;;;7.75;;
2338;SDS011;1180;51.438;6.978;2023-03-01T04:10:10;14.93;;;9.40;;
2338;SDS011;1180;51.438;6.978;2023-03-01T04:12:40;8.77;;;7.05;;
2338;SDS011;1180;51.438;6.978;2023-03-01T04:15:08;8.88;;;7.35;;
2338;SDS011;1180;51.438;6.978;2023-03-01T04:17:40;10.75;;;8.07;;
2338;SDS011;1180;51.438;6.978;2023-03-01T04:20:08;9.00;;;7.97;;
2338;SDS011;1180;51.438;6.978;2023-03-01T04:22:36;10.15;;;8.77;;
2338;SDS011;1180;51.438;6.978;2023-03-01T04:25:01;16.23;;;8.17;;
2338;SDS011;1180;51.438;6.978;2023-03-01T04:27:27;12.50;;;9.50;;
2338;SDS011;1180;51.438;6.978;2023-03-01T04:29:52;11.10;;;7.53;;
2338;SDS011;1180;51.438;6.978;2023-03-01T04:32:18;10.60;;;9.50;;
2338;SDS011;1180;51.438;6.978;2023-03-01T04:34:43;16.23;;;8.60;;
2338;SDS011;1180;51.438;6.978;2023-03-01T04:37:08;21.33;;;8.40;;
2338;SDS011;1180;51.438;6.978;2023-03-01T04:39:34;12.83;;;9.17;;
2338;SDS011;1180;51.438;6.978;2023-03-01T04:42:11;10.43;;;8.63;;
2338;SDS011;1180;51.438;6.978;2023-03-01T04:44:36;11.20;;;8.40;;
2338;SDS011;1180;51.438;6.978;2023-03-01T04:47:02;8.47;;;7.23;;
2338;SDS011;1180;51.438;6.978;2023-03-01T04:49:27;13.60;;;8.73;;
2338;SDS011;1180;51.438;6.978;2023-03-01T04:51:52;18.53;;;9.30;;
2338;SDS011;1180;51.438;6.978;2023-03-01T04:54:18;10.63;;;8.53;;
2338;SDS011;1180;51.438;6.978;2023-03-01T04:56:43;11.37;;;8.83;;
2338;SDS011;1180;51.438;6.978;2023-03-01T04:59:08;9.27;;;7.53;;
2338;SDS011;1180;51.438;6.978;2023-03-01T05:01:35;10.90;;;9.40;;
2338;SDS011;1180;51.438;6.978;2023-03-01T05:04:00;14.77;;;9.07;;
2338;SDS011;1180;51.438;6.978;2023-03-01T05:06:28;11.85;;;8.82;;
2338;SDS011;1180;51.438;6.978;2023-03-01T05:08:53;11.83;;;9.90;;
2338;SDS011;1180;51.438;6.978;2023-03-01T05:11:19;14.07;;;9.80;;
2338;SDS011;1180;51.438;6.978;2023-03-01T05:13:44;10.90;;;8.87;;
2338;SDS011;1180;51.438;6.978;2023-03-01T05:16:09;10.00;;;8.40;;
2338;SDS011;1180;51.438;6.978;2023-03-01T05:18:39;11.27;;;9.13;;
2338;SDS011;1180;51.438;6.978;2023-03-01T05:21:07;12.15;;;8.50;;
2338;SDS011;1180;51.438;6.978;2023-03-01T05:23:35;11.48;;;10.27;;
2338;SDS011;1180;51.438;6.978;2023-03-01T05:26:01;12.80;;;9.25;;
2338;SDS011;1180;51.438;6.978;2023-03-01T05:28:29;11.43;;;9.05;;
2338;SDS011;1180;51.438;6.978;2023-03-01T05:30:55;10.57;;;8.43;;
2338;SDS011;1180;51.438;6.978;2023-03-01T05:33:21;10.90;;;8.68;;
2338;SDS011;1180;51.438;6.978;2023-03-01T05:35:47;9.63;;;7.90;;
2338;SDS011;1180;51.438;6.978;2023-03-01T05:38:14;11.63;;;9.18;;
2338;SDS011;1180;51.438;6.978;2023-03-01T05:40:40;9.35;;;8.23;;
2338;SDS011;1180;51.438;6.978;2023-03-01T05:43:07;9.82;;;8.80;;
2338;SDS011;1180;51.438;6.978;2023-03-01T05:45:32;14.23;;;8.97;;
2338;SDS011;1180;51.438;6.978;2023-03-01T05:48:00;9.65;;;8.45;;
2338;SDS011;1180;51.438;6.978;2023-03-01T05:50:26;9.30;;;7.87;;
2338;SDS011;1180;51.438;6.978;2023-03-01T05:52:58;14.30;;;9.93;;
2338;SDS011;1180;51.438;6.978;2023-03-01T05:55:31;9.80;;;8.65;;
2338;SDS011;1180;51.438;6.978;2023-03-01T05:58:04;11.38;;;9.00;;
2338;SDS011;1180;51.438;6.978;2023-03-01T06:00:31;11.95;;;9.60;;
2338;SDS011;1180;51.438;6.978;2023-03-01T06:02:58;11.05;;;9.27;;
2338;SDS011;1180;51.438;6.978;2023-03-01T06:05:24;8.95;;;8.13;;
2338;SDS011;1180;51.438;6.978;2023-03-01T06:07:50;9.02;;;7.95;;
2338;SDS011;1180;51.438;6.978;2023-03-01T06:12:42;12.00;;;9.52;;
2338;SDS011;1180;51.438;6.978;2023-03-01T06:15:09;14.00;;;9.13;;
2338;SDS011;1180;51.438;6.978;2023-03-01T06:17:37;11.63;;;9.98;;
2338;SDS011;1180;51.438;6.978;2023-03-01T06:20:05;15.85;;;8.85;;
2338;SDS011;1180;51.438;6.978;2023-03-01T06:22:31;9.63;;;8.50;;
2338;SDS011;1180;51.438;6.978;2023-03-01T06:24:56;12.17;;;9.10;;
2338;SDS011;1180;51.438;6.978;2023-03-01T06:27:22;11.43;;;8.83;;
2338;SDS011;1180;51.438;6.978;2023-03-01T06:29:47;13.93;;;9.40;;
2338;SDS011;1180;51.438;6.978;2023-03-01T06:32:13;10.68;;;9.23;;
2338;SDS011;1180;51.438;6.978;2023-03-01T06:34:39;11.17;;;9.10;;
2338;SDS011;1180;51.438;6.978;2023-03-01T06:37:04;14.37;;;9.03;;
2338;SDS011;1180;51.438;6.978;2023-03-01T06:39:31;12.48;;;9.93;;
2338;SDS011;1180;51.438;6.978;2023-03-01T06:41:57;18.45;;;8.80;;
2338;SDS011;1180;51.438;6.978;2023-03-01T06:44:22;11.83;;;9.40;;
2338;SDS011;1180;51.438;6.978;2023-03-01T06:46:48;13.60;;;10.43;;
2338;SDS011;1180;51.438;6.978;2023-03-01T06:49:14;11.23;;;9.48;;
2338;SDS011;1180;51.438;6.978;2023-03-01T06:51:41;15.15;;;9.27;;
2338;SDS011;1180;51.438;6.978;2023-03-01T06:54:06;12.70;;;9.37;;
2338;SDS011;1180;51.438;6.978;2023-03-01T06:56:32;10.50;;;9.13;;
2338;SDS011;1180;51.438;6.978;2023-03-01T06:58:58;12.67;;;9.17;;
2338;SDS011;1180;51.438;6.978;2023-03-01T07:01:23;10.33;;;9.03;;
2338;SDS011;1180;51.438;6.978;2023-03-01T07:04:05;12.80;;;9.60;;
2338;SDS011;1180;51.438;6.978;2023-03-01T07:06:30;12.43;;;8.85;;
2338;SDS011;1180;51.438;6.978;2023-03-01T07:08:55;10.80;;;9.20;;
2338;SDS011;1180;51.438;6.978;2023-03-01T07:11:21;12.57;;;8.73;;
2338;SDS011;1180;51.438;6.978;2023-03-01T07:13:46;10.77;;;9.20;;
2338;SDS011;1180;51.438;6.978;2023-03-01T07:16:11;11.43;;;8.70;;
2338;SDS011;1180;51.438;6.978;2023-03-01T07:18:37;11.90;;;9.43;;
2338;SDS011;1180;51.438;6.978;2023-03-01T07:21:06;11.43;;;9.53;;
2338;SDS011;1180;51.438;6.978;2023-03-01T07:23:33;11.18;;;8.73;;
2338;SDS011;1180;51.438;6.978;2023-03-01T07:25:59;11.90;;;9.60;;
2338;SDS011;1180;51.438;6.978;2023-03-01T07:28:25;14.63;;;9.88;;
2338;SDS011;1180;51.438;6.978;2023-03-01T07:30:51;11.60;;;8.37;;
2338;SDS011;1180;51.438;6.978;2023-03-01T07:33:16;15.00;;;10.57;;
2338;SDS011;1180;51.438;6.978;2023-03-01T07:35:42;16.03;;;10.70;;
2338;SDS011;1180;51.438;6.978;2023-03-01T07:38:07;10.10;;;9.03;;
2338;SDS011;1180;51.438;6.978;2023-03-01T07:40:33;14.00;;;9.67;;
2338;SDS011;1180;51.438;6.978;2023-03-01T07:42:58;14.67;;;9.97;;
2338;SDS011;1180;51.438;6.978;2023-03-01T07:45:24;10.40;;;8.57;;
2338;SDS011;1180;51.438;6.978;2023-03-01T07:47:51;11.02;;;9.88;;
2338;SDS011;1180;51.438;6.978;2023-03-01T07:50:17;13.07;;;9.48;;
2338;SDS011;1180;51.438;6.978;2023-03-01T07:52:44;8.80;;;7.65;;
2338;SDS011;1180;51.438;6.978;2023-03-01T07:55:10;12.95;;;8.85;;
2338;SDS011;1180;51.438;6.978;2023-03-01T07:57:35;10.23;;;8.17;;
2338;SDS011;1180;51.438;6.978;2023-03-01T08:00:01;11.33;;;9.53;;
2338;SDS011;1180;51.438;6.978;2023-03-01T08:02:26;11.73;;;8.50;;
2338;SDS011;1180;51.438;6.978;2023-03-01T08:04:51;11.03;;;9.50;;
2338;SDS011;1180;51.438;6.978;2023-03-01T08:07:17;12.77;;;8.37;;
2338;SDS011;1180;51.438;6.978;2023-03-01T08:09:43;10.43;;;8.30;;
2338;SDS011;1180;51.438;6.978;2023-03-01T08:12:08;11.83;;;9.30;;
2338;SDS011;1180;51.438;6.978;2023-03-01T08:14:35;13.75;;;9.82;;
2338;SDS011;1180;51.438;6.978;2023-03-01T08:17:00;10.20;;;9.10;;
2338;SDS011;1180;51.438;6.978;2023-03-01T08:19:28;8.95;;;8.05;;
2338;SDS011;1180;51.438;6.978;2023-03-01T08:21:54;10.50;;;8.63;;
2338;SDS011;1180;51.438;6.978;2023-03-01T08:24:20;11.97;;;9.23;;
2338;SDS011;1180;51.438;6.978;2023-03-01T08:26:45;13.43;;;8.80;;
2338;SDS011;1180;51.438;6.978;2023-03-01T08:29:11;13.63;;;8.80;;
2338;SDS011;1180;51.438;6.978;2023-03-01T08:31:37;12.70;;;8.37;;
2338;SDS011;1180;51.438;6.978;2023-03-01T08:34:05;10.65;;;8.25;;
2338;SDS011;1180;51.438;6.978;2023-03-01T08:36:35;11.43;;;8.68;;
2338;SDS011;1180;51.438;6.978;2023-03-01T08:39:04;10.30;;;7.43;;
2338;SDS011;1180;51.438;6.978;2023-03-01T08:41:30;10.02;;;8.80;;
2338;SDS011;1180;51.438;6.978;2023-03-01T08:43:55;9.10;;;8.20;;
2338;SDS011;1180;51.438;6.978;2023-03-01T08:46:31;12.20;;;8.82;;
2338;SDS011;1180;51.438;6.978;2023-03-01T08:48:58;9.88;;;8.07;;
2338;SDS011;1180;51.438;6.978;2023-03-01T08:51:25;10.80;;;8.57;;
2338;SDS011;1180;51.438;6.978;2023-03-01T08:53:50;10.10;;;7.60;;
2338;SDS011;1180;51.438;6.978;2023-03-01T08:56:17;10.17;;;8.87;;
2338;SDS011;1180;51.438;6.978;2023-03-01T08:58:44;9.23;;;8.00;;
2338;SDS011;1180;51.438;6.978;2023-03-01T09:01:14;10.35;;;8.25;;
2338;SDS011;1180;51.438;6.978;2023-03-01T09:03:42;9.82;;;7.90;;
2338;SDS011;1180;51.438;6.978;2023-03-01T09:06:08;11.73;;;8.80;;
2338;SDS011;1180;51.438;6.978;2023-03-01T09:08:35;8.70;;;7.45;;
2338;SDS011;1180;51.438;6.978;2023-03-01T09:11:05;8.77;;;7.88;;
2338;SDS011;1180;51.438;6.978;2023-03-01T09:13:32;10.02;;;8.77;;
2338;SDS011;1180;51.438;6.978;2023-03-01T09:15:58;15.87;;;10.50;;
2338;SDS011;1180;51.438;6.978;2023-03-01T09:18:25;12.32;;;9.60;;
2338;SDS011;1180;51.438;6.978;2023-03-01T09:20:50;10.80;;;9.17;;
2338;SDS011;1180;51.438;6.978;2023-03-01T09:23:16;13.13;;;8.73;;
2338;SDS011;1180;51.438;6.978;2023-03-01T09:25:41;14.17;;;9.87;;
2338;SDS011;1180;51.438;6.978;2023-03-01T09:28:06;11.13;;;8.90;;
2338;SDS011;1180;51.438;6.978;2023-03-01T09:30:32;10.97;;;8.97;;
2338;SDS011;1180;51.438;6.978;2023-03-01T09:32:57;13.90;;;8.60;;
2338;SDS011;1180;51.438;6.978;2023-03-01T09:35:22;9.60;;;7.77;;
2338;SDS011;1180;51.438;6.978;2023-03-01T09:37:48;9.00;;;7.50;;
2338;SDS011;1180;51.438;6.978;2023-03-01T09:40:16;14.77;;;8.18;;
2338;SDS011;1180;51.438;6.978;2023-03-01T09:42:51;9.55;;;7.68;;
2338;SDS011;1180;51.438;6.978;2023-03-01T09:45:27;9.77;;;8.20;;
2338;SDS011;1180;51.438;6.978;2023-03-01T09:47:58;9.07;;;8.18;;
2338;SDS011;1180;51.438;6.978;2023-03-01T09:50:32;8.35;;;7.38;;
2338;SDS011;1180;51.438;6.978;2023-03-01T09:53:02;9.60;;;7.85;;
2338;SDS011;1180;51.438;6.978;2023-03-01T09:55:43;13.77;;;8.48;;
2338;SDS011;1180;51.438;6.978;2023-03-01T10:04:48;8.23;;;7.22;;
2338;SDS011;1180;51.438;6.978;2023-03-01T10:09:37;9.45;;;7.80;;
2338;SDS011;1180;51.438;6.978;2023-03-01T10:12:08;12.15;;;7.53;;
2338;SDS011;1180;51.438;6.978;2023-03-01T10:20:08;8.77;;;7.53;;
2338;SDS011;1180;51.438;6.978;2023-03-01T10:22:39;10.05;;;7.47;;
2338;SDS011;1180;51.438;6.978;2023-03-01T10:25:05;8.23;;;6.90;;
2338;SDS011;1180;51.438;6.978;2023-03-01T10:27:34;10.37;;;7.13;;
2338;SDS011;1180;51.438;6.978;2023-03-01T10:32:48;10.30;;;7.90;;
2338;SDS011;1180;51.438;6.978;2023-03-01T10:35:26;7.82;;;6.93;;
2338;SDS011;1180;51.438;6.978;2023-03-01T10:38:02;12.93;;;7.50;;
2338;SDS011;1180;51.438;6.978;2023-03-01T10:40:28;9.68;;;7.78;;
2338;SDS011;1180;51.438;6.978;2023-03-01T10:42:53;10.07;;;7.30;;
2338;SDS011;1180;51.438;6.978;2023-03-01T10:50:33;6.35;;;5.75;;
2338;SDS011;1180;51.438;6.978;2023-03-01T10:53:00;11.10;;;7.57;;
2338;SDS011;1180;51.438;6.978;2023-03-01T10:55:29;9.25;;;7.07;;
2338;SDS011;1180;51.438;6.978;2023-03-01T10:58:07;8.95;;;6.05;;
2338;SDS011;1180;51.438;6.978;2023-03-01T11:03:20;7.70;;;6.18;;
2338;SDS011;1180;51.438;6.978;2023-03-01T11:08:36;6.63;;;6.00;;
2338;SDS011;1180;51.438;6.978;2023-03-01T11:14:00;6.82;;;6.15;;
2338;SDS011;1180;51.438;6.978;2023-03-01T11:16:38;9.30;;;7.05;;
2338;SDS011;1180;51.438;6.978;2023-03-01T11:21:33;8.35;;;6.82;;
2338;SDS011;1180;51.438;6.978;2023-03-01T11:24:01;9.00;;;6.90;;
2338;SDS011;1180;51.438;6.978;2023-03-01T11:26:29;6.82;;;6.10;;
2338;SDS011;1180;51.438;6.978;2023-03-01T11:29:00;8.05;;;6.10;;
2338;SDS011;1180;51.438;6.978;2023-03-01T11:31:32;8.23;;;6.38;;
2338;SDS011;1180;51.438;6.978;2023-03-01T11:34:08;8.25;;;7.45;;
2338;SDS011;1180;51.438;6.978;2023-03-01T11:36:43;7.43;;;6.22;;
2338;SDS011;1180;51.438;6.978;2023-03-01T11:39:21;8.90;;;7.30;;
2338;SDS011;1180;51.438;6.978;2023-03-01T11:42:04;9.32;;;6.18;;
2338;SDS011;1180;51.438;6.978;2023-03-01T11:44:36;7.05;;;6.35;;
2338;SDS011;1180;51.438;6.978;2023-03-01T11:55:08;8.40;;;6.35;;
2338;SDS011;1180;51.438;6.978;2023-03-01T12:03:57;6.32;;;5.75;;
2338;SDS011;1180;51.438;6.978;2023-03-01T12:12:31;8.52;;;6.22;;
2338;SDS011;1180;51.438;6.978;2023-03-01T12:18:13;7.20;;;6.50;;
2338;SDS011;1180;51.438;6.978;2023-03-01T12:21:08;9.75;;;5.80;;
2338;SDS011;1180;51.438;6.978;2023-03-01T12:23:53;7.87;;;5.80;;
2338;SDS011;1180;51.438;6.978;2023-03-01T12:26:41;6.60;;;6.00;;
2338;SDS011;1180;51.438;6.978;2023-03-01T12:29:31;10.23;;;6.73;;
2338;SDS011;1180;51.438;6.978;2023-03-01T12:37:27;7.57;;;6.80;;
2338;SDS011;1180;51.438;6.978;2023-03-01T12:48:09;8.50;;;6.30;;
2338;SDS011;1180;51.438;6.978;2023-03-01T12:53:05;8.97;;;6.53;;
2338;SDS011;1180;51.438;6.978;2023-03-01T12:55:40;7.80;;;6.40;;
2338;SDS011;1180;51.438;6.978;2023-03-01T13:03:51;8.87;;;6.87;;
2338;SDS011;1180;51.438;6.978;2023-03-01T13:11:43;7.93;;;6.67;;
2338;SDS011;1180;51.438;6.978;2023-03-01T13:14:43;7.73;;;6.30;;
2338;SDS011;1180;51.438;6.978;2023-03-01T13:17:00;7.87;;;5.70;;
2338;SDS011;1180;51.438;6.978;2023-03-01T13:19:26;11.53;;;6.30;;
2338;SDS011;1180;51.438;6.978;2023-03-01T13:22:01;6.87;;;6.20;;
2338;SDS011;1180;51.438;6.978;2023-03-01T13:25:02;8.93;;;6.60;;
2338;SDS011;1180;51.438;6.978;2023-03-01T13:27:38;11.17;;;6.00;;
2338;SDS011;1180;51.438;6.978;2023-03-01T13:30:03;8.80;;;7.87;;
2338;SDS011;1180;51.438;6.978;2023-03-01T13:32:31;9.90;;;7.67;;
2338;SDS011;1180;51.438;6.978;2023-03-01T13:37:44;10.50;;;7.30;;
2338;SDS011;1180;51.438;6.978;2023-03-01T13:43:30;7.90;;;7.20;;
2338;SDS011;1180;51.438;6.978;2023-03-01T13:45:58;10.93;;;7.07;;
2338;SDS011;1180;51.438;6.978;2023-03-01T13:48:26;9.63;;;6.60;;
2338;SDS011;1180;51.438;6.978;2023-03-01T13:51:03;9.00;;;6.60;;
2338;SDS011;1180;51.438;6.978;2023-03-01T13:53:35;10.30;;;7.53;;
2338;SDS011;1180;51.438;6.978;2023-03-01T13:56:14;11.10;;;7.07;;
2338;SDS011;1180;51.438;6.978;2023-03-01T13:58:48;9.00;;;6.50;;
2338;SDS011;1180;51.438;6.978;2023-03-01T14:01:20;8.80;;;7.60;;
2338;SDS011;1180;51.438;6.978;2023-03-01T14:03:51;10.23;;;7.53;;
2338;SDS011;1180;51.438;6.978;2023-03-01T14:06:18;14.13;;;7.00;;
2338;SDS011;1180;51.438;6.978;2023-03-01T14:08:48;8.80;;;7.50;;
2338;SDS011;1180;51.438;6.978;2023-03-01T14:11:29;10.73;;;7.37;;
2338;SDS011;1180;51.438;6.978;2023-03-01T14:17:10;11.33;;;7.37;;
2338;SDS011;1180;51.438;6.978;2023-03-01T14:19:58;12.20;;;7.80;;
2338;SDS011;1180;51.438;6.978;2023-03-01T14:22:33;9.67;;;7.53;;
2338;SDS011;1180;51.438;6.978;2023-03-01T14:25:00;8.33;;;7.50;;
2338;SDS011;1180;51.438;6.978;2023-03-01T14:27:38;10.37;;;7.87;;
2338;SDS011;1180;51.438;6.978;2023-03-01T14:32:37;8.37;;;7.30;;
2338;SDS011;1180;51.438;6.978;2023-03-01T14:35:03;11.23;;;8.03;;
2338;SDS011;1180;51.438;6.978;2023-03-01T14:37:32;10.20;;;8.30;;
2338;SDS011;1180;51.438;6.978;2023-03-01T14:40:00;9.60;;;6.17;;
2338;SDS011;1180;51.438;6.978;2023-03-01T14:42:29;13.97;;;7.80;;
2338;SDS011;1180;51.438;6.978;2023-03-01T14:45:00;13.33;;;8.73;;
2338;SDS011;1180;51.438;6.978;2023-03-01T14:47:31;11.10;;;7.60;;
2338;SDS011;1180;51.438;6.978;2023-03-01T14:50:02;16.27;;;8.00;;
2338;SDS011;1180;51.438;6.978;2023-03-01T14:52:34;9.30;;;7.10;;
2338;SDS011;1180;51.438;6.978;2023-03-01T14:55:02;10.17;;;7.50;;
2338;SDS011;1180;51.438;6.978;2023-03-01T14:57:30;10.03;;;7.27;;
2338;SDS011;1180;51.438;6.978;2023-03-01T15:00:00;7.00;;;6.30;;
2338;SDS011;1180;51.438;6.978;2023-03-01T15:02:30;9.90;;;7.37;;
2338;SDS011;1180;51.438;6.978;2023-03-01T15:05:00;8.30;;;7.47;;
2338;SDS011;1180;51.438;6.978;2023-03-01T15:07:33;8.30;;;6.20;;
2338;SDS011;1180;51.438;6.978;2023-03-01T15:10:02;12.53;;;8.70;;
2338;SDS011;1180;51.438;6.978;2023-03-01T15:15:18;8.67;;;6.60;;
2338;SDS011;1180;51.438;6.978;2023-03-01T15:17:56;10.70;;;7.43;;
2338;SDS011;1180;51.438;6.978;2023-03-01T15:20:24;9.07;;;6.27;;
2338;SDS011;1180;51.438;6.978;2023-03-01T15:22:53;9.63;;;7.13;;
2338;SDS011;1180;51.438;6.978;2023-03-01T15:25:24;11.37;;;7.43;;
2338;SDS011;1180;51.438;6.978;2023-03-01T15:27:52;7.43;;;6.60;;
2338;SDS011;1180;51.438;6.978;2023-03-01T15:30:22;9.43;;;6.73;;
2338;SDS011;1180;51.438;6.978;2023-03-01T15:33:15;9.07;;;7.10;;
2338;SDS011;1180;51.438;6.978;2023-03-01T15:35:45;11.17;;;7.80;;
2338;SDS011;1180;51.438;6.978;2023-03-01T15:41:00;9.97;;;8.17;;
2338;SDS011;1180;51.438;6.978;2023-03-01T15:43:37;7.47;;;6.53;;
2338;SDS011;1180;51.438;6.978;2023-03-01T15:46:17;9.43;;;7.70;;
2338;SDS011;1180;51.438;6.978;2023-03-01T15:48:48;8.07;;;7.27;;
2338;SDS011;1180;51.438;6.978;2023-03-01T15:51:17;11.77;;;8.43;;
2338;SDS011;1180;51.438;6.978;2023-03-01T15:53:49;10.07;;;7.57;;
2338;SDS011;1180;51.438;6.978;2023-03-01T15:56:19;9.77;;;7.43;;
2338;SDS011;1180;51.438;6.978;2023-03-01T15:58:44;8.20;;;7.33;;
2338;SDS011;1180;51.438;6.978;2023-03-01T16:01:13;8.70;;;7.20;;
2338;SDS011;1180;51.438;6.978;2023-03-01T16:03:40;10.67;;;6.90;;
2338;SDS011;1180;51.438;6.978;2023-03-01T16:06:08;8.63;;;6.40;;
2338;SDS011;1180;51.438;6.978;2023-03-01T16:08:34;6.83;;;6.13;;
2338;SDS011;1180;51.438;6.978;2023-03-01T16:11:00;8.50;;;7.70;;
2338;SDS011;1180;51.438;6.978;2023-03-01T16:13:28;7.50;;;6.70;;
2338;SDS011;1180;51.438;6.978;2023-03-01T16:15:53;8.80;;;7.30;;
2338;SDS011;1180;51.438;6.978;2023-03-01T16:18:18;11.93;;;6.77;;
2338;SDS011;1180;51.438;6.978;2023-03-01T16:20:44;11.60;;;7.03;;
2338;SDS011;1180;51.438;6.978;2023-03-01T16:23:10;9.63;;;7.30;;
2338;SDS011;1180;51.438;6.978;2023-03-01T16:25:36;7.80;;;6.90;;
2338;SDS011;1180;51.438;6.978;2023-03-01T16:28:02;8.23;;;6.73;;
2338;SDS011;1180;51.438;6.978;2023-03-01T16:30:33;7.20;;;6.50;;
2338;SDS011;1180;51.438;6.978;2023-03-01T16:33:00;10.13;;;6.87;;
2338;SDS011;1180;51.438;6.978;2023-03-01T16:35:25;7.40;;;6.40;;
2338;SDS011;1180;51.438;6.978;2023-03-01T16:37:51;7.53;;;6.80;;
2338;SDS011;1180;51.438;6.978;2023-03-01T16:42:45;7.60;;;6.30;;
2338;SDS011;1180;51.438;6.978;2023-03-01T16:45:11;9.73;;;5.60;;
2338;SDS011;1180;51.438;6.978;2023-03-01T16:47:37;7.10;;;5.47;;
2338;SDS011;1180;51.438;6.978;2023-03-01T16:50:02;8.10;;;6.10;;
2338;SDS011;1180;51.438;6.978;2023-03-01T16:52:28;6.60;;;5.47;;
2338;SDS011;1180;51.438;6.978;2023-03-01T16:54:53;7.63;;;5.93;;
2338;SDS011;1180;51.438;6.978;2023-03-01T16:57:19;9.97;;;6.57;;
2338;SDS011;1180;51.438;6.978;2023-03-01T16:59:44;7.07;;;6.37;;
2338;SDS011;1180;51.438;6.978;2023-03-01T17:02:11;9.33;;;5.90;;
2338;SDS011;1180;51.438;6.978;2023-03-01T17:04:38;9.80;;;6.70;;
2338;SDS011;1180;51.438;6.978;2023-03-01T17:07:03;8.80;;;6.30;;
2338;SDS011;1180;51.438;6.978;2023-03-01T17:09:29;8.13;;;6.70;;
2338;SDS011;1180;51.438;6.978;2023-03-01T17:11:54;6.37;;;5.77;;
2338;SDS011;1180;51.438;6.978;2023-03-01T17:14:20;10.43;;;6.40;;